createdAt,value
2023-03-07T00:02:11.744Z,5.33
2023-03-07T00:04:39.021Z,6.70
2023-03-07T00:07:06.341Z,7.30
2023-03-07T00:09:33.658Z,8.03
2023-03-07T00:12:00.930Z,7.67
2023-03-07T00:14:28.294Z,6.50
2023-03-07T00:16:55.559Z,6.53
2023-03-07T00:19:22.761Z,4.97
2023-03-07T00:21:50.088Z,6.17
2023-03-07T00:24:17.572Z,6.13
2023-03-07T00:26:44.889Z,6.27
2023-03-07T00:29:12.080Z,4.57
2023-03-07T00:31:39.425Z,5.33
2023-03-07T00:34:06.680Z,6.53
2023-03-07T00:36:33.978Z,5.97
2023-03-07T00:39:01.256Z,7.83
2023-03-07T00:41:29.250Z,5.03
2023-03-07T00:43:56.572Z,5.30
2023-03-07T00:46:25.321Z,4.60
2023-03-07T00:48:53.150Z,4.30
2023-03-07T00:51:22.016Z,4.80
2023-03-07T00:53:49.572Z,5.67
2023-03-07T00:56:16.866Z,4.73
2023-03-07T00:58:45.879Z,3.90
2023-03-07T01:01:15.879Z,4.87
2023-03-07T01:03:43.754Z,3.77
2023-03-07T01:06:17.096Z,3.90
2023-03-07T01:08:44.710Z,4.53
2023-03-07T01:11:13.934Z,3.63
2023-03-07T01:13:42.096Z,4.67
2023-03-07T01:16:22.254Z,4.37
2023-03-07T01:18:51.828Z,4.90
2023-03-07T01:21:24.680Z,4.07
2023-03-07T01:23:52.638Z,3.67
2023-03-07T01:26:22.576Z,3.90
2023-03-07T01:28:52.100Z,3.77
2023-03-07T01:31:20.035Z,3.40
2023-03-07T01:33:52.310Z,3.53
2023-03-07T01:36:25.392Z,3.93
2023-03-07T01:39:00.903Z,4.57
2023-03-07T01:41:32.146Z,4.20
2023-03-07T01:44:02.571Z,3.37
2023-03-07T01:46:45.864Z,4.73
2023-03-07T01:49:34.157Z,3.00
2023-03-07T01:52:06.796Z,4.20
2023-03-07T01:54:42.152Z,4.20
2023-03-07T01:57:09.848Z,5.67
2023-03-07T01:59:43.739Z,4.37
2023-03-07T02:02:17.012Z,4.60
2023-03-07T02:05:13.039Z,4.83
2023-03-07T02:07:47.784Z,4.13
2023-03-07T02:10:18.975Z,3.93
2023-03-07T02:12:46.414Z,4.33
2023-03-07T02:15:14.724Z,5.03
2023-03-07T02:17:43.394Z,4.70
2023-03-07T02:20:20.942Z,4.97
2023-03-07T02:22:49.711Z,3.77
2023-03-07T02:25:39.643Z,5.87
2023-03-07T02:28:10.388Z,4.40
2023-03-07T02:30:38.442Z,6.23
2023-03-07T02:33:05.857Z,3.63
2023-03-07T02:35:33.275Z,5.67
2023-03-07T02:38:04.806Z,5.63
2023-03-07T02:40:32.714Z,6.20
2023-03-07T02:43:09.569Z,4.53
2023-03-07T02:45:39.366Z,5.00
2023-03-07T02:48:07.477Z,6.80
2023-03-07T02:50:35.457Z,5.27
2023-03-07T02:53:03.258Z,6.27
2023-03-07T02:55:30.908Z,5.53
2023-03-07T02:58:02.294Z,5.27
2023-03-07T03:00:29.841Z,5.03
2023-03-07T03:02:57.226Z,6.60
2023-03-07T03:05:24.581Z,5.60
2023-03-07T03:07:53.095Z,8.40
2023-03-07T03:10:20.712Z,5.13
2023-03-07T03:12:48.108Z,7.10
2023-03-07T03:15:15.930Z,4.80
2023-03-07T03:17:43.306Z,9.00
2023-03-07T03:20:12.685Z,6.10
2023-03-07T03:22:40.982Z,6.03
2023-03-07T03:25:11.511Z,9.90
2023-03-07T03:27:40.506Z,8.70
2023-03-07T03:30:11.230Z,7.63
2023-03-07T03:32:39.456Z,7.40
2023-03-07T03:35:08.458Z,5.47
2023-03-07T03:37:35.847Z,6.40
2023-03-07T03:40:11.733Z,4.90
2023-03-07T03:42:39.000Z,6.63
2023-03-07T03:45:06.914Z,5.20
2023-03-07T03:47:34.192Z,8.17
2023-03-07T03:50:01.597Z,8.13
2023-03-07T03:52:29.633Z,7.63
2023-03-07T03:54:57.084Z,5.53
2023-03-07T03:57:24.341Z,9.80
2023-03-07T03:59:51.660Z,9.20
2023-03-07T04:02:19.711Z,12.67
2023-03-07T04:04:47.087Z,7.27
2023-03-07T04:07:14.230Z,7.80
2023-03-07T04:09:41.459Z,8.30
2023-03-07T04:12:08.958Z,7.43
2023-03-07T04:14:36.210Z,8.70
2023-03-07T04:17:03.607Z,7.03
2023-03-07T04:19:30.870Z,7.47
2023-03-07T04:21:58.480Z,6.93
2023-03-07T04:24:26.180Z,10.00
2023-03-07T04:26:53.374Z,7.47
2023-03-07T04:29:20.938Z,8.07
2023-03-07T04:31:55.274Z,7.73
2023-03-07T04:34:22.669Z,6.27
2023-03-07T04:36:50.230Z,6.97
2023-03-07T04:39:17.661Z,9.27
2023-03-07T04:41:46.130Z,7.60
2023-03-07T04:44:18.674Z,7.80
2023-03-07T04:46:46.043Z,7.87
2023-03-07T04:49:13.323Z,8.37
2023-03-07T04:51:43.654Z,7.00
2023-03-07T04:54:12.248Z,10.17
2023-03-07T04:56:40.022Z,8.17
2023-03-07T04:59:09.665Z,7.73
2023-03-07T05:01:37.080Z,6.47
2023-03-07T05:04:05.360Z,8.37
2023-03-07T05:06:33.010Z,9.07
2023-03-07T05:09:00.825Z,7.90
2023-03-07T05:11:28.266Z,8.73
2023-03-07T05:13:56.009Z,11.33
2023-03-07T05:16:23.820Z,9.00
2023-03-07T05:18:51.211Z,9.90
2023-03-07T05:21:19.452Z,9.10
2023-03-07T05:23:46.701Z,8.90
2023-03-07T05:26:14.467Z,10.77
2023-03-07T05:28:42.280Z,7.87
2023-03-07T05:31:09.968Z,10.50
2023-03-07T05:33:37.455Z,9.10
2023-03-07T05:36:04.985Z,11.30
2023-03-07T05:38:33.218Z,11.37
2023-03-07T05:41:00.620Z,10.93
2023-03-07T05:43:28.088Z,10.57
2023-03-07T05:45:55.391Z,9.93
2023-03-07T05:48:23.119Z,10.93
2023-03-07T05:50:50.407Z,10.53
2023-03-07T05:53:19.567Z,11.07
2023-03-07T05:55:46.832Z,11.37
2023-03-07T05:58:16.410Z,11.37
2023-03-07T06:00:45.920Z,12.37
2023-03-07T06:03:13.688Z,9.03
2023-03-07T06:05:41.306Z,9.33
2023-03-07T06:08:08.665Z,10.53
2023-03-07T06:10:37.570Z,10.37
2023-03-07T06:13:05.008Z,13.30
2023-03-07T06:15:32.313Z,11.10
2023-03-07T06:18:06.519Z,8.97
2023-03-07T06:20:33.774Z,8.27
2023-03-07T06:23:01.381Z,7.63
2023-03-07T06:25:29.224Z,9.47
2023-03-07T06:28:00.782Z,10.97
2023-03-07T06:30:29.946Z,9.70
2023-03-07T06:32:57.330Z,8.40
2023-03-07T06:35:24.853Z,10.70
2023-03-07T06:37:52.210Z,8.37
2023-03-07T06:40:19.624Z,8.77
2023-03-07T06:42:47.059Z,8.90
2023-03-07T06:45:14.584Z,10.90
2023-03-07T06:47:42.074Z,10.67
2023-03-07T06:50:11.441Z,9.23
2023-03-07T06:52:40.218Z,11.27
2023-03-07T06:55:08.374Z,7.80
2023-03-07T06:57:36.616Z,9.90
2023-03-07T07:00:05.790Z,8.00
2023-03-07T07:02:34.105Z,7.93
2023-03-07T07:05:03.161Z,7.70
2023-03-07T07:07:30.953Z,9.67
2023-03-07T07:09:59.716Z,8.57
2023-03-07T07:12:27.189Z,7.43
2023-03-07T07:14:55.298Z,10.13
2023-03-07T07:17:22.679Z,9.80
2023-03-07T07:19:50.414Z,7.20
2023-03-07T07:22:18.040Z,11.37
2023-03-07T07:24:45.516Z,12.13
2023-03-07T07:27:13.055Z,9.43
2023-03-07T07:29:40.865Z,11.40
2023-03-07T07:32:09.629Z,9.63
2023-03-07T07:34:37.161Z,7.40
2023-03-07T07:37:04.831Z,9.37
2023-03-07T07:39:32.322Z,9.70
2023-03-07T07:41:59.912Z,12.73
2023-03-07T07:44:31.084Z,10.33
2023-03-07T07:47:01.559Z,10.20
2023-03-07T07:49:28.964Z,8.83
2023-03-07T07:51:56.354Z,13.60
2023-03-07T07:54:25.144Z,10.27
2023-03-07T07:56:52.959Z,8.23
2023-03-07T07:59:21.524Z,12.60
2023-03-07T08:01:49.055Z,10.20
2023-03-07T08:04:16.425Z,11.70
2023-03-07T08:06:44.407Z,10.40
2023-03-07T08:09:11.712Z,8.83
2023-03-07T08:11:38.993Z,8.23
2023-03-07T08:14:06.233Z,8.30
2023-03-07T08:16:33.555Z,7.47
2023-03-07T08:19:01.404Z,6.57
2023-03-07T08:21:28.817Z,7.80
2023-03-07T08:23:57.041Z,7.97
2023-03-07T08:26:24.852Z,10.57
2023-03-07T08:28:52.176Z,6.23
2023-03-07T08:31:23.616Z,6.80
2023-03-07T08:33:51.916Z,6.00
2023-03-07T08:36:20.229Z,5.53
2023-03-07T08:38:52.148Z,6.10
2023-03-07T08:41:22.091Z,8.10
2023-03-07T08:43:49.551Z,8.63
2023-03-07T08:46:17.023Z,5.83
2023-03-07T08:48:44.469Z,4.63
2023-03-07T08:51:15.651Z,7.60
2023-03-07T08:53:44.264Z,5.10
2023-03-07T08:56:13.629Z,5.20
2023-03-07T08:58:42.523Z,3.63
2023-03-07T09:01:10.350Z,5.63
2023-03-07T09:03:37.562Z,5.80
2023-03-07T09:06:05.791Z,6.77
2023-03-07T09:08:33.315Z,7.00
2023-03-07T09:11:03.522Z,6.60
2023-03-07T09:13:33.032Z,6.37
2023-03-07T09:16:05.506Z,4.93
2023-03-07T09:18:33.996Z,6.23
2023-03-07T09:21:02.507Z,7.97
2023-03-07T09:23:29.820Z,6.37
2023-03-07T09:26:01.435Z,5.57
2023-03-07T09:28:28.727Z,6.67
2023-03-07T09:30:56.271Z,6.67
2023-03-07T09:33:23.849Z,7.80
2023-03-07T09:35:51.266Z,6.43
2023-03-07T09:38:18.580Z,7.23
2023-03-07T09:40:48.000Z,6.93
2023-03-07T09:43:25.795Z,7.40
2023-03-07T09:46:49.911Z,8.33
2023-03-07T09:49:49.246Z,8.67
2023-03-07T09:52:27.125Z,8.07
2023-03-07T09:55:00.514Z,11.70
2023-03-07T09:57:32.006Z,9.93
2023-03-07T10:00:10.734Z,7.33
2023-03-07T10:02:47.108Z,7.33
2023-03-07T10:05:31.684Z,11.70
2023-03-07T10:08:01.538Z,8.53
2023-03-07T10:11:17.406Z,9.50
2023-03-07T10:14:15.614Z,7.17
2023-03-07T10:17:22.723Z,8.47
2023-03-07T10:19:53.324Z,7.07
2023-03-07T10:22:40.116Z,11.07
2023-03-07T10:25:07.518Z,7.70
2023-03-07T10:27:35.167Z,5.83
2023-03-07T10:30:12.117Z,9.17
2023-03-07T10:32:45.889Z,7.10
2023-03-07T10:35:15.575Z,7.13
2023-03-07T10:37:53.637Z,5.93
2023-03-07T10:40:50.428Z,4.33
2023-03-07T10:43:32.042Z,6.57
2023-03-07T10:46:25.689Z,7.87
2023-03-07T10:49:16.588Z,6.20
2023-03-07T10:51:44.046Z,5.07
2023-03-07T10:54:17.045Z,5.10
2023-03-07T10:57:18.825Z,5.47
2023-03-07T10:59:48.563Z,6.90
2023-03-07T11:02:56.980Z,6.70
2023-03-07T11:05:24.262Z,6.17
2023-03-07T11:07:51.493Z,6.37
2023-03-07T11:10:36.882Z,6.33
2023-03-07T11:13:13.764Z,6.20
2023-03-07T11:15:41.251Z,14.63
2023-03-07T11:18:29.015Z,8.83
2023-03-07T11:20:57.627Z,7.70
2023-03-07T11:23:33.021Z,7.70
2023-03-07T11:26:21.738Z,8.80
2023-03-07T11:29:08.665Z,6.20
2023-03-07T11:31:49.782Z,7.83
2023-03-07T11:34:35.731Z,6.80
2023-03-07T11:37:28.259Z,7.87
2023-03-07T11:40:03.727Z,8.63
2023-03-07T11:42:41.764Z,6.43
2023-03-07T11:45:43.325Z,7.03
2023-03-07T11:48:14.791Z,9.63
2023-03-07T11:50:48.858Z,6.93
2023-03-07T11:53:34.937Z,5.87
2023-03-07T11:56:14.866Z,7.70
2023-03-07T11:58:55.710Z,6.60
2023-03-07T12:01:44.214Z,11.30
2023-03-07T12:04:44.107Z,7.97
2023-03-07T12:07:32.301Z,7.83
2023-03-07T12:10:25.583Z,6.40
2023-03-07T12:13:02.339Z,7.50
2023-03-07T12:15:36.512Z,5.60
2023-03-07T12:18:22.952Z,5.10
2023-03-07T12:21:15.899Z,6.20
2023-03-07T12:23:52.971Z,5.53
2023-03-07T12:26:48.562Z,5.40
2023-03-07T12:29:37.560Z,5.83
2023-03-07T12:32:12.185Z,6.00
2023-03-07T12:35:16.000Z,6.43
2023-03-07T12:38:14.456Z,5.93
2023-03-07T12:40:51.266Z,6.60
2023-03-07T12:43:37.732Z,3.97
2023-03-07T12:46:24.610Z,3.73
2023-03-07T12:49:00.505Z,3.43
2023-03-07T12:51:55.936Z,3.60
2023-03-07T12:54:36.988Z,2.97
2023-03-07T12:57:17.403Z,2.10
2023-03-07T12:59:45.746Z,3.07
2023-03-07T13:02:34.938Z,3.73
2023-03-07T13:05:02.649Z,2.43
2023-03-07T13:07:33.383Z,2.23
2023-03-07T13:10:05.857Z,3.73
2023-03-07T13:12:38.226Z,2.33
2023-03-07T13:15:19.190Z,5.60
2023-03-07T13:17:46.411Z,3.90
2023-03-07T13:20:19.248Z,2.87
2023-03-07T13:22:46.423Z,4.23
2023-03-07T13:25:20.157Z,3.00
2023-03-07T13:27:48.565Z,1.67
2023-03-07T13:30:21.662Z,2.03
2023-03-07T13:32:51.817Z,1.40
2023-03-07T13:35:31.002Z,2.07
2023-03-07T13:38:10.484Z,1.80
2023-03-07T13:40:47.196Z,1.67
2023-03-07T13:43:25.447Z,2.60
2023-03-07T13:45:56.817Z,1.57
2023-03-07T13:48:30.006Z,1.63
2023-03-07T13:51:00.239Z,7.20
2023-03-07T13:53:33.446Z,1.53
2023-03-07T13:56:25.029Z,1.50
2023-03-07T13:59:10.547Z,3.03
2023-03-07T14:01:44.329Z,1.07
2023-03-07T14:04:38.887Z,1.57
2023-03-07T14:07:16.418Z,0.70
2023-03-07T14:09:49.075Z,1.40
2023-03-07T14:12:34.812Z,1.40
2023-03-07T14:15:21.190Z,2.07
2023-03-07T14:18:18.173Z,2.40
2023-03-07T14:20:51.550Z,3.57
2023-03-07T14:23:56.771Z,4.23
2023-03-07T14:26:38.743Z,5.27
2023-03-07T14:29:17.940Z,4.97
2023-03-07T14:31:46.663Z,4.43
2023-03-07T14:34:35.963Z,3.10
2023-03-07T14:37:12.932Z,4.00
2023-03-07T14:40:05.892Z,2.80
2023-03-07T14:42:40.907Z,3.63
2023-03-07T14:45:21.222Z,2.57
2023-03-07T14:48:09.593Z,4.03
2023-03-07T14:50:39.997Z,4.00
2023-03-07T14:53:20.448Z,3.77
2023-03-07T14:55:50.351Z,3.27
2023-03-07T14:58:30.093Z,3.60
2023-03-07T15:01:11.538Z,3.47
2023-03-07T15:03:52.994Z,5.27
2023-03-07T15:06:23.395Z,5.50
2023-03-07T15:08:52.279Z,6.63
2023-03-07T15:11:50.031Z,6.00
2023-03-07T15:14:45.671Z,6.37
2023-03-07T15:17:25.220Z,7.57
2023-03-07T15:20:00.020Z,8.53
2023-03-07T15:22:30.697Z,6.37
2023-03-07T15:24:58.359Z,7.17
2023-03-07T15:27:28.698Z,6.47
2023-03-07T15:29:56.826Z,6.97
2023-03-07T15:32:35.205Z,8.03
2023-03-07T15:35:09.062Z,8.20
2023-03-07T15:37:56.400Z,8.30
2023-03-07T15:40:33.361Z,6.63
2023-03-07T15:43:04.711Z,9.73
2023-03-07T15:45:38.448Z,9.00
2023-03-07T15:48:14.522Z,7.90
2023-03-07T15:50:41.782Z,9.00
2023-03-07T15:53:18.243Z,7.17
2023-03-07T15:56:01.868Z,7.17
2023-03-07T15:58:30.432Z,7.70
2023-03-07T16:01:23.680Z,6.37
2023-03-07T16:03:58.722Z,6.40
2023-03-07T16:06:38.366Z,7.80
2023-03-07T16:09:07.420Z,7.37
2023-03-07T16:11:37.639Z,6.40
2023-03-07T16:14:05.617Z,7.07
2023-03-07T16:16:33.126Z,7.33
2023-03-07T16:19:00.563Z,8.50
2023-03-07T16:21:27.880Z,8.63
2023-03-07T16:23:55.116Z,8.20
2023-03-07T16:26:24.461Z,7.73
2023-03-07T16:28:53.552Z,7.40
2023-03-07T16:31:21.692Z,9.60
2023-03-07T16:33:49.089Z,9.57
2023-03-07T16:36:17.217Z,11.90
2023-03-07T16:38:45.694Z,10.37
2023-03-07T16:41:21.934Z,12.83
2023-03-07T16:43:54.775Z,8.17
2023-03-07T16:46:23.243Z,9.90
2023-03-07T16:48:50.587Z,12.10
2023-03-07T16:51:21.033Z,12.80
2023-03-07T16:53:50.368Z,12.43
2023-03-07T16:56:22.464Z,8.97
2023-03-07T16:58:49.853Z,6.13
2023-03-07T17:01:17.219Z,6.87
2023-03-07T17:03:44.570Z,6.27
2023-03-07T17:06:16.537Z,7.90
2023-03-07T17:08:44.950Z,7.83
2023-03-07T17:11:21.674Z,12.83
2023-03-07T17:13:51.410Z,8.77
2023-03-07T17:16:19.849Z,9.23
2023-03-07T17:18:47.089Z,6.43
2023-03-07T17:21:17.049Z,7.37
2023-03-07T17:23:45.092Z,8.80
2023-03-07T17:26:32.853Z,7.20
2023-03-07T17:29:08.658Z,7.00
2023-03-07T17:31:35.941Z,10.97
2023-03-07T17:34:03.368Z,9.27
2023-03-07T17:36:32.015Z,8.67
2023-03-07T17:38:59.177Z,9.37
2023-03-07T17:41:26.429Z,13.37
2023-03-07T17:43:53.700Z,11.33
2023-03-07T17:46:21.085Z,10.47
2023-03-07T17:48:48.284Z,9.43
2023-03-07T17:51:15.577Z,9.83
2023-03-07T17:53:42.858Z,10.20
2023-03-07T17:56:13.193Z,10.60
2023-03-07T17:58:40.702Z,8.97
2023-03-07T18:01:08.848Z,9.27
2023-03-07T18:03:36.070Z,8.73
2023-03-07T18:06:04.855Z,10.70
2023-03-07T18:08:32.421Z,9.23
2023-03-07T18:11:10.576Z,10.57
2023-03-07T18:13:38.603Z,11.67
2023-03-07T18:16:07.246Z,13.73
2023-03-07T18:18:38.244Z,11.43
2023-03-07T18:21:12.316Z,14.00
2023-03-07T18:23:40.525Z,11.27
2023-03-07T18:26:13.868Z,11.83
2023-03-07T18:28:43.174Z,13.70
2023-03-07T18:31:13.290Z,13.23
2023-03-07T18:33:41.140Z,12.57
2023-03-07T18:36:12.933Z,13.33
2023-03-07T18:38:40.191Z,12.30
2023-03-07T18:41:14.519Z,13.53
2023-03-07T18:43:42.482Z,10.37
2023-03-07T18:46:16.261Z,14.87
2023-03-07T18:48:43.993Z,15.77
2023-03-07T18:51:14.798Z,12.80
2023-03-07T18:53:42.495Z,11.77
2023-03-07T18:56:17.187Z,11.73
2023-03-07T18:58:45.394Z,13.67
2023-03-07T19:01:18.407Z,15.77
2023-03-07T19:03:47.416Z,11.53
2023-03-07T19:06:16.061Z,13.03
2023-03-07T19:08:43.302Z,14.27
2023-03-07T19:11:13.197Z,12.37
2023-03-07T19:13:41.626Z,10.87
2023-03-07T19:16:15.205Z,12.63
2023-03-07T19:18:44.155Z,11.13
2023-03-07T19:21:13.992Z,11.53
2023-03-07T19:23:41.406Z,12.57
2023-03-07T19:26:10.804Z,13.77
2023-03-07T19:28:38.619Z,14.13
2023-03-07T19:31:10.783Z,12.13
2023-03-07T19:33:38.452Z,12.97
2023-03-07T19:36:08.390Z,14.17
2023-03-07T19:38:36.107Z,15.27
2023-03-07T19:41:05.105Z,13.63
2023-03-07T19:43:32.579Z,13.43
2023-03-07T19:46:00.119Z,14.63
2023-03-07T19:48:27.418Z,14.60
2023-03-07T19:50:54.948Z,13.97
2023-03-07T19:53:22.433Z,15.37
2023-03-07T19:55:49.877Z,11.83
2023-03-07T19:58:17.366Z,10.40
2023-03-07T20:00:47.969Z,10.73
2023-03-07T20:03:19.842Z,9.13
2023-03-07T20:05:48.622Z,9.63
2023-03-07T20:08:16.408Z,9.53
2023-03-07T20:10:44.709Z,11.33
2023-03-07T20:13:14.093Z,7.80
2023-03-07T20:15:49.750Z,10.27
2023-03-07T20:18:17.135Z,13.30
2023-03-07T20:20:44.410Z,12.73
2023-03-07T20:23:11.756Z,8.77
2023-03-07T20:25:39.090Z,8.63
2023-03-07T20:28:06.704Z,8.60
2023-03-07T20:30:34.156Z,8.90
2023-03-07T20:33:01.346Z,12.33
2023-03-07T20:35:31.553Z,7.07
2023-03-07T20:38:02.797Z,10.70
2023-03-07T20:40:30.596Z,15.67
2023-03-07T20:42:58.468Z,9.90
2023-03-07T20:45:26.151Z,10.47
2023-03-07T20:47:53.860Z,10.13
2023-03-07T20:50:26.164Z,12.60
2023-03-07T20:52:53.516Z,12.53
2023-03-07T20:55:21.061Z,11.67
2023-03-07T20:57:48.710Z,12.70
2023-03-07T21:00:16.465Z,12.67
2023-03-07T21:02:44.503Z,14.83
2023-03-07T21:05:13.145Z,15.10
2023-03-07T21:07:40.580Z,11.37
2023-03-07T21:10:08.437Z,8.97
2023-03-07T21:12:36.387Z,8.47
2023-03-07T21:15:04.802Z,7.33
2023-03-07T21:17:32.243Z,7.17
2023-03-07T21:20:00.019Z,5.87
2023-03-07T21:22:28.700Z,8.70
2023-03-07T21:24:56.313Z,11.90
2023-03-07T21:27:23.671Z,7.77
2023-03-07T21:29:51.349Z,9.17
2023-03-07T21:32:18.694Z,7.90
2023-03-07T21:34:46.308Z,10.13
2023-03-07T21:37:13.752Z,10.13
2023-03-07T21:39:41.116Z,9.33
2023-03-07T21:42:09.951Z,8.70
2023-03-07T21:44:38.086Z,7.40
2023-03-07T21:47:05.451Z,11.07
2023-03-07T21:49:34.052Z,11.03
2023-03-07T21:52:01.340Z,9.17
2023-03-07T21:54:28.792Z,8.93
2023-03-07T21:56:56.119Z,9.87
2023-03-07T21:59:23.436Z,11.10
2023-03-07T22:01:50.652Z,11.47
2023-03-07T22:04:18.096Z,8.40
2023-03-07T22:06:45.304Z,6.40
2023-03-07T22:09:12.851Z,8.30
2023-03-07T22:11:40.160Z,7.30
2023-03-07T22:14:07.410Z,7.20
2023-03-07T22:16:34.945Z,7.50
2023-03-07T22:19:02.331Z,12.53
2023-03-07T22:21:29.857Z,8.27
2023-03-07T22:23:59.496Z,6.63
2023-03-07T22:26:28.397Z,6.93
2023-03-07T22:28:56.169Z,6.80
2023-03-07T22:31:24.326Z,7.37
2023-03-07T22:33:53.349Z,5.73
2023-03-07T22:36:21.181Z,7.30
2023-03-07T22:38:54.112Z,6.50
2023-03-07T22:41:21.935Z,9.53
2023-03-07T22:43:49.223Z,7.57
2023-03-07T22:46:16.561Z,5.43
2023-03-07T22:48:43.855Z,6.93
2023-03-07T22:51:17.811Z,8.40
2023-03-07T22:53:45.328Z,6.50
2023-03-07T22:56:27.095Z,9.90
2023-03-07T22:58:54.842Z,7.13
2023-03-07T23:01:24.697Z,7.80
2023-03-07T23:03:53.213Z,8.27
2023-03-07T23:06:21.618Z,5.60
2023-03-07T23:08:51.622Z,5.17
2023-03-07T23:11:21.656Z,7.63
2023-03-07T23:13:48.924Z,6.70
2023-03-07T23:16:19.560Z,9.13
2023-03-07T23:18:50.489Z,7.47
2023-03-07T23:21:20.156Z,8.00
2023-03-07T23:23:47.919Z,7.57
2023-03-07T23:26:20.754Z,9.30
2023-03-07T23:28:48.508Z,6.03
2023-03-07T23:31:21.881Z,6.67
2023-03-07T23:33:49.853Z,7.13
2023-03-07T23:36:17.249Z,8.27
2023-03-07T23:38:47.613Z,7.77
2023-03-07T23:41:15.405Z,6.90
2023-03-07T23:43:42.927Z,6.83
2023-03-07T23:46:10.668Z,6.07
2023-03-07T23:48:37.947Z,11.10
2023-03-07T23:51:05.301Z,7.97
2023-03-07T23:53:32.629Z,5.10
2023-03-07T23:55:59.824Z,7.93
2023-03-07T23:58:27.068Z,4.07
